createdAt,value
2019-03-16T00:02:01.767Z,9.08
2019-03-16T00:04:32.615Z,8.97
2019-03-16T00:07:03.083Z,8.83
2019-03-16T00:09:33.542Z,8.69
2019-03-16T00:12:04.329Z,8.66
2019-03-16T00:14:35.192Z,8.55
2019-03-16T00:17:05.838Z,8.46
2019-03-16T00:19:36.173Z,8.33
2019-03-16T00:22:07.375Z,8.31
2019-03-16T00:24:37.807Z,8.29
2019-03-16T00:27:08.640Z,8.13
2019-03-16T00:29:39.302Z,8.05
2019-03-16T00:32:13.595Z,8.11
2019-03-16T00:34:42.074Z,7.98
2019-03-16T00:37:14.288Z,7.96
2019-03-16T00:39:44.779Z,7.96
2019-03-16T00:42:15.211Z,7.87
2019-03-16T00:44:45.490Z,7.95
2019-03-16T00:47:15.961Z,8.05
2019-03-16T00:49:46.401Z,8.18
2019-03-16T00:52:16.965Z,8.25
2019-03-16T00:54:47.357Z,8.36
2019-03-16T00:57:20.732Z,8.38
2019-03-16T00:59:51.327Z,8.39
2019-03-16T01:02:26.960Z,8.45
2019-03-16T01:04:53.993Z,8.57
2019-03-16T01:07:24.635Z,8.62
2019-03-16T01:09:55.205Z,8.70
2019-03-16T01:12:25.675Z,8.82
2019-03-16T01:14:56.132Z,8.88
2019-03-16T01:17:26.487Z,8.93
2019-03-16T01:19:56.964Z,8.97
2019-03-16T01:22:27.683Z,9.02
2019-03-16T01:24:58.433Z,9.08
2019-03-16T01:27:29.073Z,9.14
2019-03-16T01:29:59.671Z,9.16
2019-03-16T01:32:40.041Z,9.20
2019-03-16T01:35:02.562Z,9.21
2019-03-16T01:37:33.139Z,9.22
2019-03-16T01:40:03.653Z,9.20
2019-03-16T01:42:34.231Z,9.21
2019-03-16T01:45:04.819Z,9.23
2019-03-16T01:47:35.504Z,9.21
2019-03-16T01:50:06.229Z,9.13
2019-03-16T01:52:36.941Z,9.07
2019-03-16T01:55:07.886Z,9.01
2019-03-16T01:57:38.117Z,8.95
2019-03-16T02:00:09.230Z,8.86
2019-03-16T02:02:53.697Z,8.83
2019-03-16T02:05:12.295Z,8.80
2019-03-16T02:07:42.888Z,8.79
2019-03-16T02:10:13.715Z,8.82
2019-03-16T02:12:44.538Z,8.83
2019-03-16T02:15:15.107Z,8.84
2019-03-16T02:17:45.627Z,8.88
2019-03-16T02:20:15.971Z,8.88
2019-03-16T02:22:46.664Z,8.91
2019-03-16T02:25:17.154Z,8.93
2019-03-16T02:27:47.723Z,8.93
2019-03-16T02:30:18.437Z,8.94
2019-03-16T02:32:48.813Z,8.96
2019-03-16T02:35:19.184Z,9.00
2019-03-16T02:37:49.932Z,9.12
2019-03-16T02:40:20.568Z,9.16
2019-03-16T02:42:51.171Z,9.22
2019-03-16T02:45:21.600Z,9.23
2019-03-16T02:47:52.459Z,9.22
2019-03-16T02:50:22.967Z,9.24
2019-03-16T02:52:53.365Z,9.29
2019-03-16T02:55:23.850Z,9.29
2019-03-16T02:57:54.736Z,9.37
2019-03-16T03:00:25.248Z,9.41
2019-03-16T03:02:55.669Z,9.36
2019-03-16T03:05:26.497Z,9.44
2019-03-16T03:07:57.016Z,9.43
2019-03-16T03:10:27.396Z,9.37
2019-03-16T03:12:57.933Z,9.43
2019-03-16T03:15:28.758Z,9.49
2019-03-16T03:17:59.202Z,9.54
2019-03-16T03:20:29.893Z,9.54
2019-03-16T03:23:00.592Z,9.54
2019-03-16T03:25:31.127Z,9.50
2019-03-16T03:28:01.574Z,9.53
2019-03-16T03:30:31.984Z,9.49
2019-03-16T03:33:02.570Z,9.42
2019-03-16T03:35:33.028Z,9.39
2019-03-16T03:38:03.478Z,9.36
2019-03-16T03:40:34.616Z,9.39
2019-03-16T03:43:05.295Z,9.40
2019-03-16T03:45:35.802Z,9.39
2019-03-16T03:48:06.327Z,9.40
2019-03-16T03:50:36.923Z,9.46
2019-03-16T03:53:07.554Z,9.47
2019-03-16T03:55:38.131Z,9.48
2019-03-16T03:58:08.552Z,9.54
2019-03-16T04:00:39.050Z,9.46
2019-03-16T04:03:09.693Z,9.35
2019-03-16T04:05:40.306Z,9.42
2019-03-16T04:08:11.062Z,9.23
2019-03-16T04:10:41.502Z,9.25
2019-03-16T04:13:11.836Z,9.13
2019-03-16T04:15:42.578Z,8.96
2019-03-16T04:18:13.230Z,8.89
2019-03-16T04:20:43.740Z,8.91
2019-03-16T04:23:14.269Z,8.83
2019-03-16T04:25:44.702Z,8.88
2019-03-16T04:28:15.350Z,8.86
2019-03-16T04:30:45.751Z,8.87
2019-03-16T04:33:16.306Z,8.99
2019-03-16T04:35:46.876Z,9.01
2019-03-16T04:38:17.318Z,8.94
2019-03-16T04:40:47.987Z,8.88
2019-03-16T04:43:18.712Z,9.17
2019-03-16T04:45:49.361Z,9.20
2019-03-16T04:48:20.201Z,9.09
2019-03-16T04:50:50.790Z,9.13
2019-03-16T04:53:21.316Z,9.19
2019-03-16T04:55:52.316Z,9.14
2019-03-16T04:58:22.828Z,9.18
2019-03-16T05:00:53.228Z,9.32
2019-03-16T05:03:23.817Z,9.43
2019-03-16T05:05:54.472Z,9.42
2019-03-16T05:08:25.284Z,9.43
2019-03-16T05:10:56.057Z,9.54
2019-03-16T05:13:26.658Z,9.60
2019-03-16T05:15:57.349Z,9.80
2019-03-16T05:18:28.170Z,9.79
2019-03-16T05:20:58.882Z,10.03
2019-03-16T05:23:29.304Z,10.03
2019-03-16T05:25:59.773Z,10.03
2019-03-16T05:28:31.750Z,9.94
2019-03-16T05:31:02.365Z,10.14
2019-03-16T05:33:33.079Z,10.15
2019-03-16T05:36:03.786Z,10.14
2019-03-16T05:38:34.609Z,10.11
2019-03-16T05:41:05.362Z,10.19
2019-03-16T05:43:36.055Z,10.42
2019-03-16T05:46:06.754Z,10.44
2019-03-16T05:48:37.247Z,10.50
2019-03-16T05:51:08.031Z,10.50
2019-03-16T05:53:39.080Z,10.50
2019-03-16T05:56:09.649Z,10.48
2019-03-16T05:58:40.195Z,10.45
2019-03-16T06:01:10.703Z,10.47
2019-03-16T06:03:41.558Z,10.52
2019-03-16T06:06:12.371Z,10.73
2019-03-16T06:08:43.116Z,10.79
2019-03-16T06:11:13.780Z,10.84
2019-03-16T06:13:44.556Z,11.03
2019-03-16T06:16:15.348Z,11.26
2019-03-16T06:18:45.722Z,11.59
2019-03-16T06:21:16.219Z,11.93
2019-03-16T06:23:46.927Z,12.19
2019-03-16T06:26:19.263Z,12.35
2019-03-16T06:28:49.891Z,12.45
2019-03-16T06:31:20.651Z,12.41
2019-03-16T06:33:51.207Z,12.45
2019-03-16T06:36:21.729Z,12.48
2019-03-16T06:38:52.579Z,12.46
2019-03-16T06:41:22.934Z,12.37
2019-03-16T06:43:53.572Z,12.14
2019-03-16T06:46:24.130Z,11.99
2019-03-16T06:48:54.921Z,11.77
2019-03-16T06:51:25.390Z,11.68
2019-03-16T06:53:55.888Z,11.60
2019-03-16T06:56:27.777Z,11.57
2019-03-16T06:58:59.586Z,11.40
2019-03-16T07:01:30.142Z,11.42
2019-03-16T07:04:00.513Z,11.56
2019-03-16T07:06:31.044Z,11.57
2019-03-16T07:09:01.514Z,11.68
2019-03-16T07:11:32.033Z,11.92
2019-03-16T07:14:02.691Z,12.14
2019-03-16T07:16:33.079Z,12.42
2019-03-16T07:19:03.658Z,12.66
2019-03-16T07:21:34.195Z,12.98
2019-03-16T07:24:05.840Z,13.32
2019-03-16T07:26:36.568Z,13.45
2019-03-16T07:29:07.179Z,13.63
2019-03-16T07:31:37.842Z,13.62
2019-03-16T07:34:08.290Z,13.72
2019-03-16T07:36:39.194Z,14.92
2019-03-16T07:39:10.029Z,16.19
2019-03-16T07:41:40.730Z,17.81
2019-03-16T07:44:11.350Z,19.30
2019-03-16T07:46:41.826Z,19.93
2019-03-16T07:49:12.299Z,20.35
2019-03-16T07:51:42.830Z,20.61
2019-03-16T07:54:13.280Z,21.09
2019-03-16T07:56:43.858Z,22.12
2019-03-16T07:59:14.484Z,23.10
2019-03-16T08:01:45.205Z,24.32
2019-03-16T08:04:15.966Z,25.08
2019-03-16T08:06:46.558Z,25.22
2019-03-16T08:09:17.099Z,24.23
2019-03-16T08:11:47.536Z,23.41
2019-03-16T08:14:18.219Z,22.54
2019-03-16T08:16:48.736Z,21.93
2019-03-16T08:19:19.420Z,21.32
2019-03-16T08:21:49.917Z,21.03
2019-03-16T08:24:20.374Z,20.81
2019-03-16T08:26:50.761Z,20.68
2019-03-16T08:29:21.414Z,20.60
2019-03-16T08:31:52.005Z,21.08
2019-03-16T08:34:22.572Z,21.10
2019-03-16T08:36:52.958Z,20.95
2019-03-16T08:39:23.495Z,20.98
2019-03-16T08:41:53.915Z,20.85
2019-03-16T08:44:24.567Z,21.69
2019-03-16T08:46:54.972Z,23.38
2019-03-16T08:49:25.782Z,23.96
2019-03-16T08:51:56.216Z,24.71
2019-03-16T08:54:26.720Z,26.11
2019-03-16T08:56:57.410Z,27.45
2019-03-16T08:59:30.585Z,28.01
2019-03-16T09:02:01.199Z,28.47
2019-03-16T09:04:31.626Z,28.25
2019-03-16T09:07:02.114Z,27.49
2019-03-16T09:09:32.670Z,27.74
2019-03-16T09:12:03.253Z,27.61
2019-03-16T09:14:33.810Z,28.23
2019-03-16T09:17:04.370Z,28.86
2019-03-16T09:19:35.039Z,30.12
2019-03-16T09:22:05.743Z,31.58
2019-03-16T09:24:36.428Z,31.32
2019-03-16T09:27:06.590Z,30.26
2019-03-16T09:29:37.212Z,30.48
2019-03-16T09:32:07.631Z,30.89
2019-03-16T09:34:38.018Z,31.78
2019-03-16T09:37:08.444Z,32.02
2019-03-16T09:39:38.774Z,32.66
2019-03-16T09:42:09.356Z,33.14
2019-03-16T09:44:39.945Z,32.73
2019-03-16T09:47:10.411Z,32.81
2019-03-16T09:49:40.667Z,30.48
2019-03-16T09:52:11.302Z,29.65
2019-03-16T09:54:41.834Z,29.65
2019-03-16T09:57:12.271Z,30.29
2019-03-16T09:59:42.746Z,30.62
2019-03-16T10:02:13.176Z,30.06
2019-03-16T10:04:43.973Z,28.68
2019-03-16T10:07:14.526Z,28.82
2019-03-16T10:09:45.101Z,29.03
2019-03-16T10:12:15.831Z,29.11
2019-03-16T10:14:46.277Z,29.72
2019-03-16T10:17:16.809Z,28.47
2019-03-16T10:19:47.198Z,27.11
2019-03-16T10:22:17.954Z,25.90
2019-03-16T10:24:48.365Z,25.16
2019-03-16T10:27:19.168Z,26.06
2019-03-16T10:29:49.801Z,28.13
2019-03-16T10:32:20.364Z,29.50
2019-03-16T10:34:50.724Z,31.52
2019-03-16T10:37:21.303Z,33.30
2019-03-16T10:39:51.948Z,33.95
2019-03-16T10:42:22.401Z,32.62
2019-03-16T10:44:52.894Z,32.34
2019-03-16T10:47:23.602Z,33.19
2019-03-16T10:49:54.064Z,33.79
2019-03-16T10:52:24.484Z,32.89
2019-03-16T10:54:55.108Z,32.62
2019-03-16T10:57:28.152Z,33.83
2019-03-16T10:59:58.756Z,34.99
2019-03-16T11:02:29.263Z,34.40
2019-03-16T11:04:59.779Z,34.12
2019-03-16T11:07:30.199Z,32.18
2019-03-16T11:10:00.626Z,31.91
2019-03-16T11:12:31.189Z,32.63
2019-03-16T11:15:01.869Z,31.91
2019-03-16T11:17:32.350Z,30.53
2019-03-16T11:20:02.769Z,30.38
2019-03-16T11:22:33.315Z,31.66
2019-03-16T11:25:03.910Z,32.95
2019-03-16T11:27:34.400Z,34.29
2019-03-16T11:30:05.304Z,35.27
2019-03-16T11:32:35.714Z,35.21
2019-03-16T11:35:06.995Z,35.50
2019-03-16T11:37:37.744Z,36.61
2019-03-16T11:40:10.443Z,37.08
2019-03-16T11:42:41.090Z,35.90
2019-03-16T11:45:11.796Z,34.44
2019-03-16T11:47:42.387Z,33.59
2019-03-16T11:50:12.866Z,32.77
2019-03-16T11:52:43.266Z,32.05
2019-03-16T11:55:13.679Z,31.76
2019-03-16T11:57:44.136Z,31.12
2019-03-16T12:00:14.911Z,30.39
2019-03-16T12:02:45.294Z,29.65
2019-03-16T12:05:16.108Z,29.20
2019-03-16T12:07:46.552Z,28.71
2019-03-16T12:10:17.055Z,27.97
2019-03-16T12:12:47.438Z,27.44
2019-03-16T12:15:17.865Z,27.21
2019-03-16T12:17:48.594Z,26.93
2019-03-16T12:20:19.245Z,26.57
2019-03-16T12:22:49.779Z,26.34
2019-03-16T12:25:20.180Z,26.35
2019-03-16T12:27:50.624Z,26.38
2019-03-16T12:30:21.157Z,26.09
2019-03-16T12:32:51.511Z,25.63
2019-03-16T12:35:22.056Z,25.25
2019-03-16T12:37:52.509Z,24.85
2019-03-16T12:40:23.179Z,24.45
2019-03-16T12:42:53.848Z,24.03
2019-03-16T12:45:24.448Z,23.92
2019-03-16T12:47:54.923Z,23.75
2019-03-16T12:50:25.580Z,23.49
2019-03-16T12:52:56.144Z,23.35
2019-03-16T12:55:26.741Z,23.48
2019-03-16T12:57:57.171Z,23.54
2019-03-16T13:00:27.699Z,23.46
2019-03-16T13:02:58.215Z,23.33
2019-03-16T13:05:28.763Z,23.26
2019-03-16T13:07:59.091Z,23.20
2019-03-16T13:10:29.438Z,23.09
2019-03-16T13:12:59.947Z,23.24
2019-03-16T13:15:30.790Z,23.46
2019-03-16T13:18:01.121Z,23.43
2019-03-16T13:20:31.779Z,23.43
2019-03-16T13:23:02.336Z,23.37
2019-03-16T13:25:32.827Z,23.25
2019-03-16T13:28:03.402Z,22.95
2019-03-16T13:30:33.830Z,22.74
2019-03-16T13:33:04.331Z,22.45
2019-03-16T13:35:34.802Z,22.16
2019-03-16T13:38:05.274Z,21.96
2019-03-16T13:40:35.599Z,21.68
2019-03-16T13:43:06.133Z,21.54
2019-03-16T13:45:36.706Z,21.42
2019-03-16T13:48:07.370Z,21.32
2019-03-16T13:50:37.803Z,21.25
2019-03-16T13:53:08.435Z,21.26
2019-03-16T13:55:39.004Z,21.44
2019-03-16T13:58:09.798Z,21.63
2019-03-16T14:00:40.339Z,21.72
2019-03-16T14:03:10.997Z,21.66
2019-03-16T14:05:41.367Z,21.65
2019-03-16T14:08:11.926Z,21.66
2019-03-16T14:10:42.732Z,21.67
2019-03-16T14:13:13.388Z,21.59
2019-03-16T14:15:43.691Z,21.52
2019-03-16T14:18:14.116Z,21.48
2019-03-16T14:20:44.590Z,21.45
2019-03-16T14:23:15.114Z,21.51
2019-03-16T14:25:45.873Z,21.45
2019-03-16T14:28:16.362Z,21.51
2019-03-16T14:30:46.975Z,21.50
2019-03-16T14:33:17.421Z,21.35
2019-03-16T14:35:48.099Z,21.27
2019-03-16T14:38:18.481Z,21.26
2019-03-16T14:40:48.821Z,21.33
2019-03-16T14:43:19.436Z,21.27
2019-03-16T14:45:50.064Z,21.24
2019-03-16T14:48:20.809Z,21.08
2019-03-16T14:50:51.132Z,20.93
2019-03-16T14:53:21.691Z,20.83
2019-03-16T14:55:52.134Z,20.77
2019-03-16T14:58:22.514Z,20.61
2019-03-16T15:00:53.130Z,20.49
2019-03-16T15:03:23.477Z,20.36
2019-03-16T15:05:53.987Z,20.32
2019-03-16T15:08:24.410Z,20.12
2019-03-16T15:10:54.804Z,20.13
2019-03-16T15:13:26.909Z,20.06
2019-03-16T15:15:57.624Z,19.97
2019-03-16T15:18:28.073Z,19.91
2019-03-16T15:20:58.721Z,19.86
2019-03-16T15:23:29.035Z,19.78
2019-03-16T15:25:59.368Z,19.74
2019-03-16T15:28:29.771Z,19.69
2019-03-16T15:31:00.282Z,19.61
2019-03-16T15:33:30.818Z,19.58
2019-03-16T15:36:01.272Z,19.53
2019-03-16T15:38:31.940Z,19.48
2019-03-16T15:41:02.568Z,19.39
2019-03-16T15:43:33.157Z,19.30
2019-03-16T15:46:03.508Z,19.25
2019-03-16T15:48:34.051Z,19.15
2019-03-16T15:51:04.430Z,19.11
2019-03-16T15:53:34.910Z,19.02
2019-03-16T15:56:05.585Z,19.01
2019-03-16T15:58:36.095Z,18.96
2019-03-16T16:01:06.419Z,18.88
2019-03-16T16:03:37.038Z,18.83
2019-03-16T16:06:07.696Z,18.80
2019-03-16T16:08:38.235Z,18.76
2019-03-16T16:11:08.817Z,18.77
2019-03-16T16:13:39.396Z,18.75
2019-03-16T16:16:09.843Z,18.75
2019-03-16T16:18:40.394Z,18.74
2019-03-16T16:21:12.049Z,18.70
2019-03-16T16:23:42.525Z,18.73
2019-03-16T16:26:12.997Z,18.72
2019-03-16T16:28:43.489Z,18.65
2019-03-16T16:31:16.586Z,18.64
2019-03-16T16:33:46.044Z,18.56
2019-03-16T16:36:16.509Z,18.47
2019-03-16T16:38:47.034Z,18.37
2019-03-16T16:41:17.526Z,18.33
2019-03-16T16:43:47.923Z,18.22
2019-03-16T16:46:18.606Z,18.14
2019-03-16T16:48:48.954Z,18.15
2019-03-16T16:51:19.520Z,18.21
2019-03-16T16:53:49.946Z,18.21
2019-03-16T16:56:20.307Z,18.13
2019-03-16T16:58:51.049Z,18.11
2019-03-16T17:01:29.277Z,18.01
2019-03-16T17:03:54.044Z,17.91
2019-03-16T17:06:25.775Z,17.85
2019-03-16T17:08:56.526Z,17.70
2019-03-16T17:11:27.273Z,17.72
2019-03-16T17:13:57.730Z,17.77
2019-03-16T17:16:28.537Z,17.81
2019-03-16T17:18:59.174Z,17.79
2019-03-16T17:21:29.935Z,17.81
2019-03-16T17:24:00.677Z,17.82
2019-03-16T17:26:31.361Z,17.83
2019-03-16T17:29:02.475Z,17.80
2019-03-16T17:31:42.136Z,17.77
2019-03-16T17:34:05.291Z,17.75
2019-03-16T17:36:37.849Z,17.69
2019-03-16T17:39:09.555Z,17.64
2019-03-16T17:41:39.829Z,17.62
2019-03-16T17:44:10.546Z,17.60
2019-03-16T17:46:41.501Z,17.57
2019-03-16T17:49:13.177Z,17.54
2019-03-16T17:51:43.783Z,17.53
2019-03-16T17:54:14.365Z,17.48
2019-03-16T17:56:44.790Z,17.47
2019-03-16T17:59:15.499Z,17.44
2019-03-16T18:01:54.582Z,17.45
2019-03-16T18:04:18.568Z,17.43
2019-03-16T18:06:49.100Z,17.43
2019-03-16T18:09:19.558Z,17.37
2019-03-16T18:11:50.011Z,17.39
2019-03-16T18:14:21.621Z,17.37
2019-03-16T18:16:54.258Z,17.32
2019-03-16T18:19:24.980Z,17.27
2019-03-16T18:21:55.707Z,17.27
2019-03-16T18:24:26.545Z,17.22
2019-03-16T18:26:58.495Z,17.18
2019-03-16T18:29:29.295Z,17.16
2019-03-16T18:32:07.763Z,17.12
2019-03-16T18:34:32.285Z,17.14
2019-03-16T18:37:05.355Z,17.12
2019-03-16T18:39:36.026Z,17.17
2019-03-16T18:42:06.819Z,17.16
2019-03-16T18:44:37.464Z,17.12
2019-03-16T18:47:07.940Z,17.10
2019-03-16T18:49:38.487Z,17.06
2019-03-16T18:52:08.982Z,17.00
2019-03-16T18:54:39.601Z,16.99
2019-03-16T18:57:10.467Z,16.94
2019-03-16T18:59:40.979Z,16.90
2019-03-16T19:02:20.660Z,16.88
2019-03-16T19:04:44.266Z,16.86
2019-03-16T19:07:20.453Z,16.84
2019-03-16T19:09:59.063Z,16.87
2019-03-16T19:12:31.108Z,16.86
2019-03-16T19:15:01.939Z,16.84
2019-03-16T19:17:32.622Z,16.85
2019-03-16T19:20:08.458Z,16.86
2019-03-16T19:22:39.393Z,16.88
2019-03-16T19:25:12.431Z,16.82
2019-03-16T19:27:43.385Z,16.82
2019-03-16T19:30:14.948Z,16.82
2019-03-16T19:32:45.830Z,16.88
2019-03-16T19:35:16.586Z,16.91
2019-03-16T19:37:47.173Z,16.93
2019-03-16T19:40:17.786Z,16.94
2019-03-16T19:42:48.472Z,16.98
2019-03-16T19:45:19.493Z,16.94
2019-03-16T19:47:50.078Z,16.93
2019-03-16T19:50:20.902Z,16.95
2019-03-16T19:52:51.381Z,16.90
2019-03-16T19:55:21.782Z,16.91
2019-03-16T19:57:52.154Z,16.91
2019-03-16T20:00:23.032Z,16.89
2019-03-16T20:02:53.889Z,16.90
2019-03-16T20:05:24.820Z,16.89
2019-03-16T20:07:55.364Z,16.84
2019-03-16T20:10:25.778Z,16.75
2019-03-16T20:12:57.734Z,16.67
2019-03-16T20:15:28.385Z,16.69
2019-03-16T20:17:59.411Z,16.74
2019-03-16T20:20:30.261Z,16.74
2019-03-16T20:23:01.171Z,16.73
2019-03-16T20:25:31.649Z,16.74
2019-03-16T20:28:02.243Z,16.71
2019-03-16T20:30:33.391Z,16.69
2019-03-16T20:33:04.536Z,16.69
2019-03-16T20:35:35.469Z,16.70
2019-03-16T20:38:06.133Z,16.63
2019-03-16T20:40:37.299Z,16.72
2019-03-16T20:43:07.851Z,16.77
2019-03-16T20:45:38.590Z,16.81
2019-03-16T20:48:09.360Z,16.86
2019-03-16T20:50:39.919Z,16.75
2019-03-16T20:53:10.526Z,16.81
2019-03-16T20:55:41.030Z,16.84
2019-03-16T20:58:11.587Z,16.78
2019-03-16T21:00:42.069Z,16.72
2019-03-16T21:03:16.309Z,16.76
2019-03-16T21:05:44.818Z,16.75
2019-03-16T21:08:15.127Z,16.72
2019-03-16T21:10:45.693Z,16.76
2019-03-16T21:13:16.605Z,16.67
2019-03-16T21:15:47.074Z,16.65
2019-03-16T21:18:17.550Z,16.66
2019-03-16T21:20:48.080Z,16.74
2019-03-16T21:23:18.644Z,16.75
2019-03-16T21:25:51.993Z,16.67
2019-03-16T21:28:22.386Z,16.66
2019-03-16T21:30:53.060Z,16.59
2019-03-16T21:33:29.350Z,16.50
2019-03-16T21:35:55.612Z,16.54
2019-03-16T21:38:26.240Z,16.48
2019-03-16T21:40:56.922Z,16.49
2019-03-16T21:43:27.669Z,16.51
2019-03-16T21:45:58.034Z,16.50
2019-03-16T21:48:28.409Z,16.47
2019-03-16T21:50:59.081Z,16.43
2019-03-16T21:53:29.503Z,16.42
2019-03-16T21:56:00.252Z,16.37
2019-03-16T21:58:31.103Z,16.27
2019-03-16T22:01:01.926Z,16.23
2019-03-16T22:03:42.083Z,16.24
2019-03-16T22:06:09.831Z,16.27
2019-03-16T22:08:40.638Z,16.11
2019-03-16T22:11:11.332Z,15.93
2019-03-16T22:13:41.676Z,15.83
2019-03-16T22:16:12.309Z,15.80
2019-03-16T22:18:43.177Z,15.76
2019-03-16T22:21:13.724Z,15.77
2019-03-16T22:23:44.252Z,15.75
2019-03-16T22:26:14.865Z,15.73
2019-03-16T22:28:45.413Z,15.69
2019-03-16T22:31:15.965Z,15.61
2019-03-16T22:33:54.281Z,15.60
2019-03-16T22:36:18.751Z,15.51
2019-03-16T22:38:49.390Z,15.44
2019-03-16T22:41:20.122Z,15.44
2019-03-16T22:43:50.699Z,15.41
2019-03-16T22:46:21.351Z,15.38
2019-03-16T22:48:51.965Z,15.34
2019-03-16T22:51:22.634Z,15.27
2019-03-16T22:53:55.446Z,15.26
2019-03-16T22:56:25.988Z,15.23
2019-03-16T22:58:56.565Z,15.28
2019-03-16T23:01:27.123Z,15.35
2019-03-16T23:04:06.216Z,15.35
2019-03-16T23:06:30.086Z,15.36
2019-03-16T23:09:00.723Z,15.33
2019-03-16T23:11:31.303Z,15.33
2019-03-16T23:14:02.005Z,15.40
2019-03-16T23:16:32.541Z,15.34
2019-03-16T23:19:03.165Z,15.29
2019-03-16T23:21:33.709Z,15.32
2019-03-16T23:24:04.197Z,15.28
2019-03-16T23:26:38.779Z,15.25
2019-03-16T23:29:08.109Z,15.13
2019-03-16T23:31:38.876Z,15.24
2019-03-16T23:34:18.704Z,15.19
2019-03-16T23:36:41.863Z,15.14
2019-03-16T23:39:12.391Z,15.13
2019-03-16T23:41:42.810Z,15.02
2019-03-16T23:44:13.545Z,15.05
2019-03-16T23:46:44.199Z,15.03
2019-03-16T23:49:14.935Z,14.93
2019-03-16T23:51:45.346Z,14.90
2019-03-16T23:54:16.031Z,14.82
2019-03-16T23:56:46.786Z,14.65
2019-03-16T23:59:17.588Z,14.58
